EW7670 Weather Reports


Display with metric or nautical units.
time (UTC)temp
F
wind
direction
speed
MPH
gust
MPH
rain 1hr
in
rain 24hr
in
rain mn
in
humidity
%
barometer
mb
20240620194505 79 47 10.0 13.0 0.00 0.00 0.00 76 1025.1
20240620193041 79 36 9.0 14.0 0.00 0.00 0.00 76 1025.3
20240620191518 79 45 9.0 14.0 0.00 0.00 0.00 77 1025.4
20240620174622 80 47 10.0 13.0 0.00 0.00 0.00 75 1025.9
20240620170137 79 42 10.0 14.0 0.00 0.00 0.00 75 1026.1
20240620164528 79 37 11.0 14.0 0.00 0.00 0.00 74 1026.3
20240620163100 80 53 10.0 14.0 0.00 0.00 0.00 75 1026.5
20240620160132 79 57 8.0 15.0 0.00 0.00 0.00 76 1026.5
20240620143150 78 63 11.0 19.0 0.00 0.00 0.00 79 1025.9
20240620140123 78 46 10.0 16.0 0.00 0.00 0.00 79 1026.0
20240620134606 78 37 13.0 16.0 0.00 0.00 0.00 77 1025.9
20240620133154 78 49 10.0 15.0 0.00 0.00 0.00 77 1025.8
20240620131513 78 40 11.0 15.0 0.00 0.00 0.00 77 1025.8
20240620130156 78 37 11.0 15.0 0.00 0.00 0.00 78 1025.9
20240620114549 77 77 7.0 11.0 0.00 0.00 0.00 79 1025.5
20240620104544 76 47 7.0 12.0 0.00 0.00 0.00 80 1025.2
20240620100150 76 44 5.0 9.0 0.00 0.00 0.00 80 1024.9
20240620093120 75 82 5.0 7.0 0.00 0.00 0.00 76 1024.8
20240620081533 76 109 6.0 12.0 0.00 0.00 0.00 76 1024.5
20240620080016 76 120 7.0 13.0 0.00 0.00 0.00 76 1024.3
20240620064520 76 94 8.0 12.0 0.00 0.00 0.00 79 1024.2
20240620061631 76 99 5.0 9.0 0.00 0.00 0.00 81 1024.3
20240620060029 75 114 5.0 10.0 0.00 0.00 0.00 81 1024.3
20240620054502 76 70 6.0 10.0 0.00 0.00 0.00 83 1024.3
20240620053108 75 80 7.0 11.0 0.00 0.00 0.00 83 1024.3
20240620051554 76 72 7.0 11.0 0.00 0.00 0.00 83 1024.4
20240620050028 76 78 6.0 10.0 0.00 0.00 0.00 83 1024.5
20240620044521 76 64 6.0 9.0 0.00 0.00 0.00 83 1024.6
20240620043013 76 82 5.0 9.0 0.00 0.00 0.00 83 1024.7
20240620041602 76 83 6.0 10.0 0.00 0.00 0.00 82 1024.8
20240620040037 76 97 6.0 11.0 0.00 0.00 0.00 80 1025.0
20240620030035 76 85 6.0 12.0 0.00 0.00 0.00 81 1025.1
20240620020010 77 100 7.0 11.0 0.00 0.00 0.00 79 1025.4
20240620011530 76 105 9.0 14.0 0.00 0.00 0.00 81 1024.9
20240620004619 77 76 7.0 11.0 0.00 0.00 0.00 82 1024.8
20240620000040 77 74 8.0 13.0 0.00 0.00 0.00 80 1024.6
20240619230008 78 94 8.0 13.0 0.00 0.00 0.00 81 1024.9
20240619224535 78 79 8.0 14.0 0.00 0.00 0.00 81 1024.8
20240619221549 78 78 11.0 16.0 0.00 0.00 0.00 81 1024.8